Terminal Aerodrome Forecast
Issued by NWS

Home | Current Version | Previous Version | Text Only | Print | Product List | Glossary On
Versions: 1 2 3 4 5 6 7 8 9 10 11 12 13 14 15 16 17 18 19 20 21 22 23 24 25 26 27 28 29 30 31 32
082
FTUS43 KDLH 192346 AAA
TAFHIB
TAF AMD
KHIB 192346Z 2000/2024 00000KT 1/4SM FZFG VV002
     FM200100 17005KT 3/4SM BR OVC004
     FM200300 17006KT 1/4SM FG VV002
     FM200600 17004KT 1/4SM -FZDZ FG VV002
     FM201400 15006KT 3/4SM -FZDZ BR OVC004
     FM202000 13006KT 1 1/2SM -RA BR OVC007=

USA.gov is the U.S. government's official web portal to all federal, state and local government web resources and services.